sensor_id;sensor_type;location;lat;lon;timestamp;temperature;humidity
43338;DHT22;28933;52.492;13.434;2023-03-01T00:00:15;3.40;85.30
43338;DHT22;28933;52.492;13.434;2023-03-01T00:02:40;3.40;85.50
43338;DHT22;28933;52.492;13.434;2023-03-01T00:05:07;3.40;85.50
43338;DHT22;28933;52.492;13.434;2023-03-01T00:07:33;3.40;85.60
43338;DHT22;28933;52.492;13.434;2023-03-01T00:09:58;3.40;85.70
43338;DHT22;28933;52.492;13.434;2023-03-01T00:12:24;3.30;85.60
43338;DHT22;28933;52.492;13.434;2023-03-01T00:14:50;3.30;85.60
43338;DHT22;28933;52.492;13.434;2023-03-01T00:17:15;3.30;85.70
43338;DHT22;28933;52.492;13.434;2023-03-01T00:19:42;3.30;85.80
43338;DHT22;28933;52.492;13.434;2023-03-01T00:22:07;3.30;85.90
43338;DHT22;28933;52.492;13.434;2023-03-01T00:24:33;3.20;86.00
43338;DHT22;28933;52.492;13.434;2023-03-01T00:26:59;3.20;86.10
43338;DHT22;28933;52.492;13.434;2023-03-01T00:29:25;3.20;86.10
43338;DHT22;28933;52.492;13.434;2023-03-01T00:31:51;3.30;86.10
43338;DHT22;28933;52.492;13.434;2023-03-01T00:34:17;3.20;86.00
43338;DHT22;28933;52.492;13.434;2023-03-01T00:36:42;3.20;86.10
43338;DHT22;28933;52.492;13.434;2023-03-01T00:39:13;3.20;86.10
43338;DHT22;28933;52.492;13.434;2023-03-01T00:41:39;3.20;86.10
43338;DHT22;28933;52.492;13.434;2023-03-01T00:44:05;3.20;86.20
43338;DHT22;28933;52.492;13.434;2023-03-01T00:46:31;3.10;86.20
43338;DHT22;28933;52.492;13.434;2023-03-01T00:48:56;3.10;86.30
43338;DHT22;28933;52.492;13.434;2023-03-01T00:51:24;3.10;86.40
43338;DHT22;28933;52.492;13.434;2023-03-01T00:53:52;3.10;86.60
43338;DHT22;28933;52.492;13.434;2023-03-01T00:56:18;3.00;86.70
43338;DHT22;28933;52.492;13.434;2023-03-01T00:58:44;3.10;86.90
43338;DHT22;28933;52.492;13.434;2023-03-01T01:01:13;3.00;87.10
43338;DHT22;28933;52.492;13.434;2023-03-01T01:06:23;3.00;87.30
43338;DHT22;28933;52.492;13.434;2023-03-01T01:08:50;3.00;87.30
43338;DHT22;28933;52.492;13.434;2023-03-01T01:11:16;3.10;87.40
43338;DHT22;28933;52.492;13.434;2023-03-01T01:13:43;3.10;87.50
43338;DHT22;28933;52.492;13.434;2023-03-01T01:16:09;3.10;87.40
43338;DHT22;28933;52.492;13.434;2023-03-01T01:18:34;3.10;87.30
43338;DHT22;28933;52.492;13.434;2023-03-01T01:21:05;3.10;87.40
43338;DHT22;28933;52.492;13.434;2023-03-01T01:23:31;3.10;87.50
43338;DHT22;28933;52.492;13.434;2023-03-01T01:25:56;3.10;87.50
43338;DHT22;28933;52.492;13.434;2023-03-01T01:28:22;3.10;87.50
43338;DHT22;28933;52.492;13.434;2023-03-01T01:30:47;3.10;87.60
43338;DHT22;28933;52.492;13.434;2023-03-01T01:33:13;3.00;87.70
43338;DHT22;28933;52.492;13.434;2023-03-01T01:35:39;3.10;87.80
43338;DHT22;28933;52.492;13.434;2023-03-01T01:38:04;3.10;87.90
43338;DHT22;28933;52.492;13.434;2023-03-01T01:40:30;3.10;87.90
43338;DHT22;28933;52.492;13.434;2023-03-01T01:42:55;3.10;87.90
43338;DHT22;28933;52.492;13.434;2023-03-01T01:47:51;3.00;88.00
43338;DHT22;28933;52.492;13.434;2023-03-01T01:50:18;3.00;88.00
43338;DHT22;28933;52.492;13.434;2023-03-01T01:52:45;3.10;88.10
43338;DHT22;28933;52.492;13.434;2023-03-01T01:55:16;3.00;88.00
43338;DHT22;28933;52.492;13.434;2023-03-01T01:57:48;3.00;88.40
43338;DHT22;28933;52.492;13.434;2023-03-01T02:00:22;3.00;87.90
43338;DHT22;28933;52.492;13.434;2023-03-01T02:02:51;3.00;87.90
43338;DHT22;28933;52.492;13.434;2023-03-01T02:05:58;3.00;88.00
43338;DHT22;28933;52.492;13.434;2023-03-01T02:08:28;3.00;88.10
43338;DHT22;28933;52.492;13.434;2023-03-01T02:10:58;3.00;88.10
43338;DHT22;28933;52.492;13.434;2023-03-01T02:13:26;3.00;88.30
43338;DHT22;28933;52.492;13.434;2023-03-01T02:15:52;3.00;88.40
43338;DHT22;28933;52.492;13.434;2023-03-01T02:18:20;2.90;88.40
43338;DHT22;28933;52.492;13.434;2023-03-01T02:23:24;2.90;88.60
43338;DHT22;28933;52.492;13.434;2023-03-01T02:28:40;2.90;88.80
43338;DHT22;28933;52.492;13.434;2023-03-01T02:31:09;2.80;88.80
43338;DHT22;28933;52.492;13.434;2023-03-01T02:33:54;2.80;88.90
43338;DHT22;28933;52.492;13.434;2023-03-01T02:36:24;2.80;88.90
43338;DHT22;28933;52.492;13.434;2023-03-01T02:38:53;2.80;88.90
43338;DHT22;28933;52.492;13.434;2023-03-01T02:41:22;2.80;88.90
43338;DHT22;28933;52.492;13.434;2023-03-01T02:43:48;2.80;89.00
43338;DHT22;28933;52.492;13.434;2023-03-01T02:46:20;2.80;89.10
43338;DHT22;28933;52.492;13.434;2023-03-01T02:48:54;2.80;89.20
43338;DHT22;28933;52.492;13.434;2023-03-01T02:56:51;2.70;89.30
43338;DHT22;28933;52.492;13.434;2023-03-01T02:59:20;2.70;89.30
43338;DHT22;28933;52.492;13.434;2023-03-01T03:01:46;2.70;89.40
43338;DHT22;28933;52.492;13.434;2023-03-01T03:04:15;2.70;89.40
43338;DHT22;28933;52.492;13.434;2023-03-01T03:06:45;2.60;89.50
43338;DHT22;28933;52.492;13.434;2023-03-01T03:09:12;2.60;89.60
43338;DHT22;28933;52.492;13.434;2023-03-01T03:11:38;2.50;89.70
43338;DHT22;28933;52.492;13.434;2023-03-01T03:14:06;2.50;89.90
43338;DHT22;28933;52.492;13.434;2023-03-01T03:16:41;2.40;89.90
43338;DHT22;28933;52.492;13.434;2023-03-01T03:19:07;2.50;90.00
43338;DHT22;28933;52.492;13.434;2023-03-01T03:21:33;2.40;90.10
43338;DHT22;28933;52.492;13.434;2023-03-01T03:23:59;2.40;90.20
43338;DHT22;28933;52.492;13.434;2023-03-01T03:26:25;2.30;90.20
43338;DHT22;28933;52.492;13.434;2023-03-01T03:28:51;2.30;90.30
43338;DHT22;28933;52.492;13.434;2023-03-01T03:31:16;2.30;90.30
43338;DHT22;28933;52.492;13.434;2023-03-01T03:33:42;2.20;90.20
43338;DHT22;28933;52.492;13.434;2023-03-01T03:36:08;2.20;90.30
43338;DHT22;28933;52.492;13.434;2023-03-01T03:38:39;2.20;90.40
43338;DHT22;28933;52.492;13.434;2023-03-01T03:41:07;2.20;90.40
43338;DHT22;28933;52.492;13.434;2023-03-01T03:43:35;2.20;90.70
43338;DHT22;28933;52.492;13.434;2023-03-01T03:46:02;2.10;90.50
43338;DHT22;28933;52.492;13.434;2023-03-01T03:48:33;2.10;90.50
43338;DHT22;28933;52.492;13.434;2023-03-01T03:50:59;2.10;90.60
43338;DHT22;28933;52.492;13.434;2023-03-01T03:53:27;2.10;90.50
43338;DHT22;28933;52.492;13.434;2023-03-01T03:55:53;2.10;90.50
43338;DHT22;28933;52.492;13.434;2023-03-01T03:58:21;2.10;90.60
43338;DHT22;28933;52.492;13.434;2023-03-01T04:00:48;2.00;90.70
43338;DHT22;28933;52.492;13.434;2023-03-01T04:03:16;2.00;90.70
43338;DHT22;28933;52.492;13.434;2023-03-01T04:05:42;2.00;90.80
43338;DHT22;28933;52.492;13.434;2023-03-01T04:08:08;2.00;90.90
43338;DHT22;28933;52.492;13.434;2023-03-01T04:10:42;2.00;90.90
43338;DHT22;28933;52.492;13.434;2023-03-01T04:13:11;1.90;91.00
43338;DHT22;28933;52.492;13.434;2023-03-01T04:15:37;1.90;91.00
43338;DHT22;28933;52.492;13.434;2023-03-01T04:18:03;1.90;91.00
43338;DHT22;28933;52.492;13.434;2023-03-01T04:20:32;2.00;91.00
43338;DHT22;28933;52.492;13.434;2023-03-01T04:23:19;1.90;91.00
43338;DHT22;28933;52.492;13.434;2023-03-01T04:30:51;1.80;91.10
43338;DHT22;28933;52.492;13.434;2023-03-01T04:33:17;1.80;91.20
43338;DHT22;28933;52.492;13.434;2023-03-01T04:35:43;1.80;91.20
43338;DHT22;28933;52.492;13.434;2023-03-01T04:38:09;1.80;91.20
43338;DHT22;28933;52.492;13.434;2023-03-01T04:40:35;1.80;91.30
43338;DHT22;28933;52.492;13.434;2023-03-01T04:43:01;1.80;91.30
43338;DHT22;28933;52.492;13.434;2023-03-01T04:45:27;1.80;91.20
43338;DHT22;28933;52.492;13.434;2023-03-01T04:47:53;1.80;91.30
43338;DHT22;28933;52.492;13.434;2023-03-01T04:50:19;1.80;91.40
43338;DHT22;28933;52.492;13.434;2023-03-01T04:52:46;1.80;91.40
43338;DHT22;28933;52.492;13.434;2023-03-01T04:55:12;1.80;91.50
43338;DHT22;28933;52.492;13.434;2023-03-01T04:57:38;1.80;91.50
43338;DHT22;28933;52.492;13.434;2023-03-01T05:00:06;1.80;91.40
43338;DHT22;28933;52.492;13.434;2023-03-01T05:02:46;1.70;91.40
43338;DHT22;28933;52.492;13.434;2023-03-01T05:05:14;1.70;91.50
43338;DHT22;28933;52.492;13.434;2023-03-01T05:07:39;1.70;91.50
43338;DHT22;28933;52.492;13.434;2023-03-01T05:10:05;1.70;91.60
43338;DHT22;28933;52.492;13.434;2023-03-01T05:12:30;1.70;91.60
43338;DHT22;28933;52.492;13.434;2023-03-01T05:14:56;1.60;91.70
43338;DHT22;28933;52.492;13.434;2023-03-01T05:17:22;1.60;91.80
43338;DHT22;28933;52.492;13.434;2023-03-01T05:19:47;1.70;91.80
43338;DHT22;28933;52.492;13.434;2023-03-01T05:22:13;1.70;91.90
43338;DHT22;28933;52.492;13.434;2023-03-01T05:24:38;1.60;91.90
43338;DHT22;28933;52.492;13.434;2023-03-01T05:27:05;1.60;92.00
43338;DHT22;28933;52.492;13.434;2023-03-01T05:29:31;1.60;92.00
43338;DHT22;28933;52.492;13.434;2023-03-01T05:32:01;1.60;92.00
43338;DHT22;28933;52.492;13.434;2023-03-01T05:34:32;1.60;91.90
43338;DHT22;28933;52.492;13.434;2023-03-01T05:36:59;1.60;92.10
43338;DHT22;28933;52.492;13.434;2023-03-01T05:39:26;1.60;91.90
43338;DHT22;28933;52.492;13.434;2023-03-01T05:41:56;1.60;92.00
43338;DHT22;28933;52.492;13.434;2023-03-01T05:44:23;1.60;92.00
43338;DHT22;28933;52.492;13.434;2023-03-01T05:46:49;1.60;92.00
43338;DHT22;28933;52.492;13.434;2023-03-01T05:49:15;1.60;92.00
43338;DHT22;28933;52.492;13.434;2023-03-01T05:51:42;1.50;92.10
43338;DHT22;28933;52.492;13.434;2023-03-01T05:54:11;1.50;92.10
43338;DHT22;28933;52.492;13.434;2023-03-01T05:56:37;1.50;92.10
43338;DHT22;28933;52.492;13.434;2023-03-01T05:59:04;1.60;92.10
43338;DHT22;28933;52.492;13.434;2023-03-01T06:01:34;1.60;92.20
43338;DHT22;28933;52.492;13.434;2023-03-01T06:03:59;1.60;92.20
43338;DHT22;28933;52.492;13.434;2023-03-01T06:06:25;1.60;92.30
43338;DHT22;28933;52.492;13.434;2023-03-01T06:08:51;1.60;92.40
43338;DHT22;28933;52.492;13.434;2023-03-01T06:11:17;1.60;92.40
43338;DHT22;28933;52.492;13.434;2023-03-01T06:13:44;1.60;92.60
43338;DHT22;28933;52.492;13.434;2023-03-01T06:16:10;1.60;92.40
43338;DHT22;28933;52.492;13.434;2023-03-01T06:18:36;1.60;92.50
43338;DHT22;28933;52.492;13.434;2023-03-01T06:21:02;1.60;92.50
43338;DHT22;28933;52.492;13.434;2023-03-01T06:23:28;1.70;92.50
43338;DHT22;28933;52.492;13.434;2023-03-01T06:25:54;1.70;92.50
43338;DHT22;28933;52.492;13.434;2023-03-01T06:28:20;1.70;92.60
43338;DHT22;28933;52.492;13.434;2023-03-01T06:30:45;1.80;92.70
43338;DHT22;28933;52.492;13.434;2023-03-01T06:33:11;1.80;92.70
43338;DHT22;28933;52.492;13.434;2023-03-01T06:35:37;1.80;92.70
43338;DHT22;28933;52.492;13.434;2023-03-01T06:38:05;1.90;92.80
43338;DHT22;28933;52.492;13.434;2023-03-01T06:40:31;1.90;92.90
43338;DHT22;28933;52.492;13.434;2023-03-01T06:42:57;1.90;92.90
43338;DHT22;28933;52.492;13.434;2023-03-01T06:45:23;1.90;92.90
43338;DHT22;28933;52.492;13.434;2023-03-01T06:47:49;2.00;92.90
43338;DHT22;28933;52.492;13.434;2023-03-01T06:50:16;2.00;92.90
43338;DHT22;28933;52.492;13.434;2023-03-01T06:52:42;2.00;92.90
43338;DHT22;28933;52.492;13.434;2023-03-01T06:55:10;2.10;92.90
43338;DHT22;28933;52.492;13.434;2023-03-01T06:57:36;2.10;92.90
43338;DHT22;28933;52.492;13.434;2023-03-01T07:00:03;2.10;93.00
43338;DHT22;28933;52.492;13.434;2023-03-01T07:02:29;2.20;93.00
43338;DHT22;28933;52.492;13.434;2023-03-01T07:04:55;2.20;93.00
43338;DHT22;28933;52.492;13.434;2023-03-01T07:07:20;2.30;93.10
43338;DHT22;28933;52.492;13.434;2023-03-01T07:09:48;2.40;93.10
43338;DHT22;28933;52.492;13.434;2023-03-01T07:12:13;2.40;93.10
43338;DHT22;28933;52.492;13.434;2023-03-01T07:14:39;2.40;93.10
43338;DHT22;28933;52.492;13.434;2023-03-01T07:17:05;2.40;93.10
43338;DHT22;28933;52.492;13.434;2023-03-01T07:19:30;2.40;93.10
43338;DHT22;28933;52.492;13.434;2023-03-01T07:21:56;2.50;93.10
43338;DHT22;28933;52.492;13.434;2023-03-01T07:24:22;2.50;93.10
43338;DHT22;28933;52.492;13.434;2023-03-01T07:26:49;2.60;93.10
43338;DHT22;28933;52.492;13.434;2023-03-01T07:29:16;2.70;93.10
43338;DHT22;28933;52.492;13.434;2023-03-01T07:31:42;2.70;93.00
43338;DHT22;28933;52.492;13.434;2023-03-01T07:34:07;2.80;93.00
43338;DHT22;28933;52.492;13.434;2023-03-01T07:36:33;2.80;93.10
43338;DHT22;28933;52.492;13.434;2023-03-01T07:38:59;2.90;93.50
43338;DHT22;28933;52.492;13.434;2023-03-01T07:41:27;2.90;93.20
43338;DHT22;28933;52.492;13.434;2023-03-01T07:43:53;3.00;93.10
43338;DHT22;28933;52.492;13.434;2023-03-01T07:46:19;3.00;93.10
43338;DHT22;28933;52.492;13.434;2023-03-01T07:48:44;3.10;93.10
43338;DHT22;28933;52.492;13.434;2023-03-01T07:51:10;3.10;93.10
43338;DHT22;28933;52.492;13.434;2023-03-01T07:53:36;3.10;93.10
43338;DHT22;28933;52.492;13.434;2023-03-01T07:56:06;3.20;93.20
43338;DHT22;28933;52.492;13.434;2023-03-01T07:58:35;3.30;93.20
43338;DHT22;28933;52.492;13.434;2023-03-01T08:01:05;3.30;93.20
43338;DHT22;28933;52.492;13.434;2023-03-01T08:03:31;3.40;93.20
43338;DHT22;28933;52.492;13.434;2023-03-01T08:05:59;3.40;93.20
43338;DHT22;28933;52.492;13.434;2023-03-01T08:08:25;3.50;93.20
43338;DHT22;28933;52.492;13.434;2023-03-01T08:10:51;3.60;93.10
43338;DHT22;28933;52.492;13.434;2023-03-01T08:13:17;3.60;93.00
43338;DHT22;28933;52.492;13.434;2023-03-01T08:15:48;3.60;93.00
43338;DHT22;28933;52.492;13.434;2023-03-01T08:18:14;3.70;92.90
43338;DHT22;28933;52.492;13.434;2023-03-01T08:20:40;3.70;92.80
43338;DHT22;28933;52.492;13.434;2023-03-01T08:23:05;3.80;92.70
43338;DHT22;28933;52.492;13.434;2023-03-01T08:25:31;3.90;92.60
43338;DHT22;28933;52.492;13.434;2023-03-01T08:27:57;3.90;92.40
43338;DHT22;28933;52.492;13.434;2023-03-01T08:30:22;4.00;92.40
43338;DHT22;28933;52.492;13.434;2023-03-01T08:32:49;4.10;92.30
43338;DHT22;28933;52.492;13.434;2023-03-01T08:35:15;4.10;92.10
43338;DHT22;28933;52.492;13.434;2023-03-01T08:37:41;4.20;92.00
43338;DHT22;28933;52.492;13.434;2023-03-01T08:40:07;4.20;92.00
43338;DHT22;28933;52.492;13.434;2023-03-01T08:42:34;4.30;91.90
43338;DHT22;28933;52.492;13.434;2023-03-01T08:44:59;4.40;91.80
43338;DHT22;28933;52.492;13.434;2023-03-01T08:47:25;4.40;91.70
43338;DHT22;28933;52.492;13.434;2023-03-01T08:49:51;4.50;91.50
43338;DHT22;28933;52.492;13.434;2023-03-01T08:52:19;4.50;91.40
43338;DHT22;28933;52.492;13.434;2023-03-01T08:54:44;4.60;91.30
43338;DHT22;28933;52.492;13.434;2023-03-01T08:57:10;4.60;91.20
43338;DHT22;28933;52.492;13.434;2023-03-01T08:59:35;4.70;91.10
43338;DHT22;28933;52.492;13.434;2023-03-01T09:02:04;4.70;91.00
43338;DHT22;28933;52.492;13.434;2023-03-01T09:04:29;4.80;90.90
43338;DHT22;28933;52.492;13.434;2023-03-01T09:06:55;4.90;90.90
43338;DHT22;28933;52.492;13.434;2023-03-01T09:09:21;4.90;90.70
43338;DHT22;28933;52.492;13.434;2023-03-01T09:11:46;5.00;90.70
43338;DHT22;28933;52.492;13.434;2023-03-01T09:14:13;5.00;90.50
43338;DHT22;28933;52.492;13.434;2023-03-01T09:16:38;5.00;90.30
43338;DHT22;28933;52.492;13.434;2023-03-01T09:19:05;5.10;90.20
43338;DHT22;28933;52.492;13.434;2023-03-01T09:21:31;5.10;90.10
43338;DHT22;28933;52.492;13.434;2023-03-01T09:23:57;5.20;89.90
43338;DHT22;28933;52.492;13.434;2023-03-01T09:26:24;5.20;89.30
43338;DHT22;28933;52.492;13.434;2023-03-01T09:28:52;5.20;89.00
43338;DHT22;28933;52.492;13.434;2023-03-01T09:31:20;5.20;88.90
43338;DHT22;28933;52.492;13.434;2023-03-01T09:33:47;5.30;88.80
43338;DHT22;28933;52.492;13.434;2023-03-01T09:36:19;5.30;88.50
43338;DHT22;28933;52.492;13.434;2023-03-01T09:38:46;5.40;88.20
43338;DHT22;28933;52.492;13.434;2023-03-01T09:44:11;5.50;87.80
43338;DHT22;28933;52.492;13.434;2023-03-01T09:46:42;5.50;86.20
43338;DHT22;28933;52.492;13.434;2023-03-01T09:49:27;5.50;85.60
43338;DHT22;28933;52.492;13.434;2023-03-01T09:54:57;5.50;84.80
43338;DHT22;28933;52.492;13.434;2023-03-01T10:00:18;5.60;85.60
43338;DHT22;28933;52.492;13.434;2023-03-01T10:02:51;5.70;85.00
43338;DHT22;28933;52.492;13.434;2023-03-01T10:05:41;5.80;84.50
43338;DHT22;28933;52.492;13.434;2023-03-01T10:10:43;6.00;84.40
43338;DHT22;28933;52.492;13.434;2023-03-01T10:13:21;6.00;83.90
43338;DHT22;28933;52.492;13.434;2023-03-01T10:16:16;6.00;82.90
43338;DHT22;28933;52.492;13.434;2023-03-01T10:18:46;6.10;83.10
43338;DHT22;28933;52.492;13.434;2023-03-01T10:21:18;6.20;82.60
43338;DHT22;28933;52.492;13.434;2023-03-01T10:23:44;6.20;82.50
43338;DHT22;28933;52.492;13.434;2023-03-01T10:26:23;6.20;81.70
43338;DHT22;28933;52.492;13.434;2023-03-01T10:32:26;6.30;81.30
43338;DHT22;28933;52.492;13.434;2023-03-01T10:34:51;6.30;81.70
43338;DHT22;28933;52.492;13.434;2023-03-01T10:37:19;6.30;81.70
43338;DHT22;28933;52.492;13.434;2023-03-01T10:42:40;6.40;79.60
43338;DHT22;28933;52.492;13.434;2023-03-01T10:48:15;6.50;80.70
43338;DHT22;28933;52.492;13.434;2023-03-01T10:51:12;6.60;80.40
43338;DHT22;28933;52.492;13.434;2023-03-01T10:53:49;6.60;79.30
43338;DHT22;28933;52.492;13.434;2023-03-01T10:56:15;6.70;80.00
43338;DHT22;28933;52.492;13.434;2023-03-01T10:58:57;6.80;79.30
43338;DHT22;28933;52.492;13.434;2023-03-01T11:01:25;6.70;79.20
43338;DHT22;28933;52.492;13.434;2023-03-01T11:04:23;6.70;79.30
43338;DHT22;28933;52.492;13.434;2023-03-01T11:06:58;6.80;78.80
43338;DHT22;28933;52.492;13.434;2023-03-01T11:09:24;6.80;78.70
43338;DHT22;28933;52.492;13.434;2023-03-01T11:11:57;6.90;79.10
43338;DHT22;28933;52.492;13.434;2023-03-01T11:14:30;6.90;78.30
43338;DHT22;28933;52.492;13.434;2023-03-01T11:17:23;7.00;77.60
43338;DHT22;28933;52.492;13.434;2023-03-01T11:23:02;7.00;77.00
43338;DHT22;28933;52.492;13.434;2023-03-01T11:25:34;7.00;76.80
43338;DHT22;28933;52.492;13.434;2023-03-01T11:28:04;7.10;77.20
43338;DHT22;28933;52.492;13.434;2023-03-01T11:30:58;7.10;77.20
43338;DHT22;28933;52.492;13.434;2023-03-01T11:36:02;7.30;77.00
43338;DHT22;28933;52.492;13.434;2023-03-01T11:38:34;7.30;76.70
43338;DHT22;28933;52.492;13.434;2023-03-01T11:41:16;7.40;75.90
43338;DHT22;28933;52.492;13.434;2023-03-01T11:44:16;7.40;76.00
43338;DHT22;28933;52.492;13.434;2023-03-01T11:49:51;7.60;76.10
43338;DHT22;28933;52.492;13.434;2023-03-01T11:55:03;7.80;75.60
43338;DHT22;28933;52.492;13.434;2023-03-01T12:06:20;7.70;69.40
43338;DHT22;28933;52.492;13.434;2023-03-01T12:12:24;7.90;70.50
43338;DHT22;28933;52.492;13.434;2023-03-01T12:19:33;7.90;70.10
43338;DHT22;28933;52.492;13.434;2023-03-01T12:22:28;8.00;70.20
43338;DHT22;28933;52.492;13.434;2023-03-01T12:38:16;8.10;66.90
43338;DHT22;28933;52.492;13.434;2023-03-01T12:43:56;8.20;67.20
43338;DHT22;28933;52.492;13.434;2023-03-01T12:49:30;8.30;65.90
43338;DHT22;28933;52.492;13.434;2023-03-01T12:52:20;8.30;65.80
43338;DHT22;28933;52.492;13.434;2023-03-01T12:54:50;8.30;65.70
43338;DHT22;28933;52.492;13.434;2023-03-01T13:06:12;8.30;63.20
43338;DHT22;28933;52.492;13.434;2023-03-01T13:11:34;8.40;64.30
43338;DHT22;28933;52.492;13.434;2023-03-01T13:16:50;8.40;64.30
43338;DHT22;28933;52.492;13.434;2023-03-01T13:19:17;8.50;63.80
43338;DHT22;28933;52.492;13.434;2023-03-01T13:21:43;8.50;62.90
43338;DHT22;28933;52.492;13.434;2023-03-01T13:24:33;8.50;63.30
43338;DHT22;28933;52.492;13.434;2023-03-01T13:29:56;8.60;63.40
43338;DHT22;28933;52.492;13.434;2023-03-01T13:32:27;8.60;63.20
43338;DHT22;28933;52.492;13.434;2023-03-01T13:37:44;8.80;63.00
43338;DHT22;28933;52.492;13.434;2023-03-01T13:45:51;9.00;62.00
43338;DHT22;28933;52.492;13.434;2023-03-01T13:48:23;9.00;62.00
43338;DHT22;28933;52.492;13.434;2023-03-01T13:50:53;9.10;61.50
43338;DHT22;28933;52.492;13.434;2023-03-01T13:53:22;9.10;61.50
43338;DHT22;28933;52.492;13.434;2023-03-01T13:55:51;9.10;61.50
43338;DHT22;28933;52.492;13.434;2023-03-01T14:00:55;9.30;60.30
43338;DHT22;28933;52.492;13.434;2023-03-01T14:03:21;9.20;60.00
43338;DHT22;28933;52.492;13.434;2023-03-01T14:06:06;9.20;60.50
43338;DHT22;28933;52.492;13.434;2023-03-01T14:08:34;9.30;60.60
43338;DHT22;28933;52.492;13.434;2023-03-01T14:11:39;9.40;60.40
43338;DHT22;28933;52.492;13.434;2023-03-01T14:20:24;9.60;60.60
43338;DHT22;28933;52.492;13.434;2023-03-01T14:22:56;9.60;60.10
43338;DHT22;28933;52.492;13.434;2023-03-01T14:25:29;9.60;59.60
43338;DHT22;28933;52.492;13.434;2023-03-01T14:28:00;9.70;59.50
43338;DHT22;28933;52.492;13.434;2023-03-01T14:30:48;9.70;59.70
43338;DHT22;28933;52.492;13.434;2023-03-01T14:33:33;9.80;59.60
43338;DHT22;28933;52.492;13.434;2023-03-01T14:38:42;9.80;59.50
43338;DHT22;28933;52.492;13.434;2023-03-01T14:41:18;9.90;59.40
43338;DHT22;28933;52.492;13.434;2023-03-01T14:44:07;9.90;60.70
43338;DHT22;28933;52.492;13.434;2023-03-01T14:46:40;9.90;59.90
43338;DHT22;28933;52.492;13.434;2023-03-01T14:49:17;10.00;60.10
43338;DHT22;28933;52.492;13.434;2023-03-01T14:52:05;10.10;59.60
43338;DHT22;28933;52.492;13.434;2023-03-01T14:54:51;10.10;60.00
43338;DHT22;28933;52.492;13.434;2023-03-01T14:57:25;10.10;60.10
43338;DHT22;28933;52.492;13.434;2023-03-01T14:59:57;10.10;60.60
43338;DHT22;28933;52.492;13.434;2023-03-01T15:02:25;10.10;60.20
43338;DHT22;28933;52.492;13.434;2023-03-01T15:04:55;10.10;59.90
43338;DHT22;28933;52.492;13.434;2023-03-01T15:07:29;10.20;60.20
43338;DHT22;28933;52.492;13.434;2023-03-01T15:09:56;10.20;60.50
43338;DHT22;28933;52.492;13.434;2023-03-01T15:14:53;10.40;60.90
43338;DHT22;28933;52.492;13.434;2023-03-01T15:17:40;10.40;60.90
43338;DHT22;28933;52.492;13.434;2023-03-01T15:20:15;10.40;61.00
43338;DHT22;28933;52.492;13.434;2023-03-01T15:22:44;10.40;61.30
43338;DHT22;28933;52.492;13.434;2023-03-01T15:25:19;10.40;61.30
43338;DHT22;28933;52.492;13.434;2023-03-01T15:27:49;10.40;61.20
43338;DHT22;28933;52.492;13.434;2023-03-01T15:30:33;10.30;61.10
43338;DHT22;28933;52.492;13.434;2023-03-01T15:33:28;10.30;61.30
43338;DHT22;28933;52.492;13.434;2023-03-01T15:35:56;10.20;61.10
43338;DHT22;28933;52.492;13.434;2023-03-01T15:38:49;10.20;61.50
43338;DHT22;28933;52.492;13.434;2023-03-01T15:41:31;10.30;61.70
43338;DHT22;28933;52.492;13.434;2023-03-01T15:43:58;10.30;61.80
43338;DHT22;28933;52.492;13.434;2023-03-01T15:46:25;10.30;62.00
43338;DHT22;28933;52.492;13.434;2023-03-01T15:48:54;10.30;62.00
43338;DHT22;28933;52.492;13.434;2023-03-01T15:51:30;10.30;61.80
43338;DHT22;28933;52.492;13.434;2023-03-01T15:53:59;10.30;61.60
43338;DHT22;28933;52.492;13.434;2023-03-01T15:56:25;10.20;61.50
43338;DHT22;28933;52.492;13.434;2023-03-01T15:58:50;10.20;61.50
43338;DHT22;28933;52.492;13.434;2023-03-01T16:01:17;10.20;61.80
43338;DHT22;28933;52.492;13.434;2023-03-01T16:03:43;10.20;62.00
43338;DHT22;28933;52.492;13.434;2023-03-01T16:06:10;10.20;61.80
43338;DHT22;28933;52.492;13.434;2023-03-01T16:08:36;10.20;61.80
43338;DHT22;28933;52.492;13.434;2023-03-01T16:11:09;10.20;61.70
43338;DHT22;28933;52.492;13.434;2023-03-01T16:13:36;10.10;61.80
43338;DHT22;28933;52.492;13.434;2023-03-01T16:16:02;10.10;62.00
43338;DHT22;28933;52.492;13.434;2023-03-01T16:18:28;10.00;62.10
43338;DHT22;28933;52.492;13.434;2023-03-01T16:20:53;10.00;62.20
43338;DHT22;28933;52.492;13.434;2023-03-01T16:23:19;9.90;62.20
43338;DHT22;28933;52.492;13.434;2023-03-01T16:25:46;9.80;62.20
43338;DHT22;28933;52.492;13.434;2023-03-01T16:28:12;9.70;62.30
43338;DHT22;28933;52.492;13.434;2023-03-01T16:30:38;9.70;62.40
43338;DHT22;28933;52.492;13.434;2023-03-01T16:33:04;9.60;62.50
43338;DHT22;28933;52.492;13.434;2023-03-01T16:35:38;9.60;62.60
43338;DHT22;28933;52.492;13.434;2023-03-01T16:38:04;9.60;62.70
43338;DHT22;28933;52.492;13.434;2023-03-01T16:40:29;9.50;62.80
43338;DHT22;28933;52.492;13.434;2023-03-01T16:42:56;9.50;63.00
43338;DHT22;28933;52.492;13.434;2023-03-01T16:45:25;9.40;63.10
43338;DHT22;28933;52.492;13.434;2023-03-01T16:47:51;9.30;63.20
43338;DHT22;28933;52.492;13.434;2023-03-01T16:50:17;9.30;63.40
43338;DHT22;28933;52.492;13.434;2023-03-01T16:52:42;9.20;63.50
43338;DHT22;28933;52.492;13.434;2023-03-01T16:55:08;9.20;64.20
43338;DHT22;28933;52.492;13.434;2023-03-01T16:57:36;9.10;63.90
43338;DHT22;28933;52.492;13.434;2023-03-01T17:00:03;9.10;64.50
43338;DHT22;28933;52.492;13.434;2023-03-01T17:02:33;9.10;64.30
43338;DHT22;28933;52.492;13.434;2023-03-01T17:04:58;9.00;64.40
43338;DHT22;28933;52.492;13.434;2023-03-01T17:07:24;9.00;64.60
43338;DHT22;28933;52.492;13.434;2023-03-01T17:09:50;9.00;64.70
43338;DHT22;28933;52.492;13.434;2023-03-01T17:12:15;9.00;65.00
43338;DHT22;28933;52.492;13.434;2023-03-01T17:14:41;9.00;65.10
43338;DHT22;28933;52.492;13.434;2023-03-01T17:17:08;9.00;65.30
43338;DHT22;28933;52.492;13.434;2023-03-01T17:19:34;8.90;65.40
43338;DHT22;28933;52.492;13.434;2023-03-01T17:22:02;8.90;65.60
43338;DHT22;28933;52.492;13.434;2023-03-01T17:24:31;8.90;65.70
43338;DHT22;28933;52.492;13.434;2023-03-01T17:26:57;8.80;65.80
43338;DHT22;28933;52.492;13.434;2023-03-01T17:29:22;8.80;66.00
43338;DHT22;28933;52.492;13.434;2023-03-01T17:31:48;8.80;66.10
43338;DHT22;28933;52.492;13.434;2023-03-01T17:34:13;8.70;66.30
43338;DHT22;28933;52.492;13.434;2023-03-01T17:36:40;8.70;66.60
43338;DHT22;28933;52.492;13.434;2023-03-01T17:39:09;8.70;66.90
43338;DHT22;28933;52.492;13.434;2023-03-01T17:41:35;8.60;67.00
43338;DHT22;28933;52.492;13.434;2023-03-01T17:44:01;8.60;67.20
43338;DHT22;28933;52.492;13.434;2023-03-01T17:46:26;8.60;67.30
43338;DHT22;28933;52.492;13.434;2023-03-01T17:48:52;8.60;67.50
43338;DHT22;28933;52.492;13.434;2023-03-01T17:51:18;8.60;67.60